Time,TemperatureF,DewpointF,PressureIn,WindDirection,WindDirectionDegrees,WindSpeedMPH,WindSpeedGustMPH,Humidity,HourlyPrecipIn,Conditions,Clouds,dailyrainin,SoftwareType,DateUTC
2013-05-17 00:16:00,51.3,45.4,29.87,North,0,0.0,0.0,80,0.00,,,0.00,WUHU21623XXSP,2013-05-17 07:16:00,
2013-05-17 01:16:00,50.2,44.6,29.86,North,0,0.0,0.0,81,0.00,,,0.00,WUHU21623XXSP,2013-05-17 08:16:00,
2013-05-17 02:16:00,49.1,43.5,29.86,North,0,0.0,0.0,81,0.00,,,0.00,WUHU21623XXSP,2013-05-17 09:16:00,
2013-05-17 03:16:00,48.0,43.1,29.85,North,0,0.0,0.0,83,0.00,,,0.00,WUHU21623XXSP,2013-05-17 10:16:00,
2013-05-17 04:16:00,46.8,42.2,29.85,North,0,0.0,0.0,84,0.00,,,0.00,WUHU21623XXSP,2013-05-17 11:16:00,
2013-05-17 05:16:00,45.3,41.0,29.86,North,0,0.0,0.0,85,0.00,,,0.00,WUHU21623XXSP,2013-05-17 12:16:00,
2013-05-17 06:16:00,44.4,40.2,29.87,North,0,0.0,0.0,85,0.00,,,0.00,WUHU21623XXSP,2013-05-17 13:16:00,
2013-05-17 07:03:00,44.6,40.7,29.89,North,0,0.0,0.0,86,0.00,,,0.00,WUHU21623XXSP,2013-05-17 14:03:00,
2013-05-17 07:08:00,44.8,40.9,29.90,North,0,0.0,0.0,86,0.00,,,0.00,WUHU21623XXSP,2013-05-17 14:08:00,
2013-05-17 07:13:00,45.0,41.0,29.89,North,0,0.0,0.0,86,0.00,,,0.00,WUHU21623XXSP,2013-05-17 14:13:00,
2013-05-17 07:18:00,45.1,41.2,29.90,North,0,0.0,0.0,86,0.00,,,0.00,WUHU21623XXSP,2013-05-17 14:18:00,
2013-05-17 07:23:00,45.3,41.4,29.90,North,0,0.0,0.0,86,0.00,,,0.00,WUHU21623XXSP,2013-05-17 14:23:00,
2013-05-17 07:28:00,45.7,41.8,29.90,North,0,0.0,0.0,86,0.00,,,0.00,WUHU21623XXSP,2013-05-17 14:28:00,
2013-05-17 07:33:00,46.0,42.1,29.89,North,0,0.0,0.0,86,0.00,,,0.00,WUHU21623XXSP,2013-05-17 14:33:00,
2013-05-17 07:38:00,46.2,42.6,29.90,North,0,0.0,0.0,87,0.00,,,0.00,WUHU21623XXSP,2013-05-17 14:38:00,
2013-05-17 07:43:00,46.8,43.1,29.90,North,0,0.0,0.0,87,0.00,,,0.00,WUHU21623XXSP,2013-05-17 14:43:00,
2013-05-17 07:48:00,47.1,43.5,29.90,North,0,0.0,0.0,87,0.00,,,0.00,WUHU21623XXSP,2013-05-17 14:48:00,
2013-05-17 07:53:00,47.7,44.0,29.90,North,0,0.0,0.0,87,0.00,,,0.00,WUHU21623XXSP,2013-05-17 14:53:00,
2013-05-17 07:58:00,48.0,44.3,29.90,North,0,0.0,0.0,87,0.00,,,0.00,WUHU21623XXSP,2013-05-17 14:58:00,
2013-05-17 08:03:00,48.4,44.7,29.89,North,0,0.0,0.0,87,0.00,,,0.00,WUHU21623XXSP,2013-05-17 15:03:00,
2013-05-17 08:08:00,48.9,45.2,29.89,North,0,0.0,0.0,87,0.00,,,0.00,WUHU21623XXSP,2013-05-17 15:08:00,
2013-05-17 08:13:00,49.3,45.5,29.89,North,0,0.0,0.0,87,0.00,,,0.00,WUHU21623XXSP,2013-05-17 15:13:00,
2013-05-17 08:18:00,49.6,45.9,29.90,North,0,0.0,0.0,87,0.00,,,0.00,WUHU21623XXSP,2013-05-17 15:18:00,
2013-05-17 08:23:00,50.0,46.0,29.90,North,0,0.0,0.0,87,0.00,,,0.00,WUHU21623XXSP,2013-05-17 15:23:00,
2013-05-17 08:28:00,50.4,46.4,29.90,North,0,0.0,0.0,87,0.00,,,0.00,WUHU21623XXSP,2013-05-17 15:28:00,
2013-05-17 08:33:00,50.7,46.9,29.89,North,0,0.0,0.0,87,0.00,,,0.00,WUHU21623XXSP,2013-05-17 15:33:00,
2013-05-17 08:38:00,50.9,46.8,29.89,North,0,0.0,0.0,86,0.00,,,0.00,WUHU21623XXSP,2013-05-17 15:38:00,
2013-05-17 08:43:00,51.4,47.3,29.89,North,0,0.0,0.0,86,0.00,,,0.00,WUHU21623XXSP,2013-05-17 15:43:00,
2013-05-17 08:48:00,51.6,47.5,29.89,North,0,0.0,0.0,86,0.00,,,0.00,WUHU21623XXSP,2013-05-17 15:48:00,
2013-05-17 08:53:00,52.0,47.9,29.89,North,0,0.0,0.0,86,0.00,,,0.00,WUHU21623XXSP,2013-05-17 15:53:00,
2013-05-17 08:58:00,52.3,47.9,29.89,North,0,0.0,0.0,85,0.00,,,0.00,WUHU21623XXSP,2013-05-17 15:58:00,
2013-05-17 09:03:00,52.9,48.5,29.89,North,0,0.0,0.0,85,0.00,,,0.00,WUHU21623XXSP,2013-05-17 16:03:00,
2013-05-17 09:08:00,53.4,48.7,29.89,North,0,0.0,0.0,84,0.00,,,0.00,WUHU21623XXSP,2013-05-17 16:08:00,
2013-05-17 09:13:00,54.0,49.2,29.90,North,0,0.0,0.0,84,0.00,,,0.00,WUHU21623XXSP,2013-05-17 16:13:00,
2013-05-17 09:18:00,54.5,49.4,29.89,North,0,0.0,0.0,83,0.00,,,0.00,WUHU21623XXSP,2013-05-17 16:18:00,
2013-05-17 09:23:00,54.7,48.9,29.89,North,0,0.0,0.0,81,0.00,,,0.00,WUHU21623XXSP,2013-05-17 16:23:00,
2013-05-17 09:28:00,55.2,49.1,29.89,North,0,0.0,0.0,80,0.00,,,0.00,WUHU21623XXSP,2013-05-17 16:28:00,
2013-05-17 09:33:00,55.8,48.9,29.90,North,0,0.0,0.0,78,0.00,,,0.00,WUHU21623XXSP,2013-05-17 16:33:00,
2013-05-17 09:38:00,56.1,48.9,29.90,North,0,0.0,0.0,77,0.00,,,0.00,WUHU21623XXSP,2013-05-17 16:38:00,
2013-05-17 09:43:00,56.5,48.9,29.89,North,0,0.0,0.0,76,0.00,,,0.00,WUHU21623XXSP,2013-05-17 16:43:00,
2013-05-17 09:48:00,56.8,48.9,29.89,North,0,0.0,0.0,75,0.00,,,0.00,WUHU21623XXSP,2013-05-17 16:48:00,
2013-05-17 09:53:00,57.0,49.1,29.89,North,0,0.0,0.0,75,0.00,,,0.00,WUHU21623XXSP,2013-05-17 16:53:00,
2013-05-17 09:58:00,57.4,49.1,29.89,North,0,0.0,0.0,74,0.00,,,0.00,WUHU21623XXSP,2013-05-17 16:58:00,
2013-05-17 10:03:00,57.7,49.1,29.89,North,0,0.0,0.0,73,0.00,,,0.00,WUHU21623XXSP,2013-05-17 17:03:00,
2013-05-17 10:08:00,57.9,48.6,29.89,North,0,0.0,0.0,71,0.00,,,0.00,WUHU21623XXSP,2013-05-17 17:08:00,
2013-05-17 10:13:00,58.1,48.7,29.89,North,0,0.0,0.0,71,0.00,,,0.00,WUHU21623XXSP,2013-05-17 17:13:00,
2013-05-17 10:18:00,58.5,48.7,29.89,North,0,0.0,0.0,70,0.00,,,0.00,WUHU21623XXSP,2013-05-17 17:18:00,
2013-05-17 10:23:00,58.8,48.7,29.89,North,0,0.0,0.0,69,0.00,,,0.00,WUHU21623XXSP,2013-05-17 17:23:00,
2013-05-17 10:28:00,58.8,48.7,29.90,North,0,0.0,0.0,69,0.00,,,0.00,WUHU21623XXSP,2013-05-17 17:28:00,
2013-05-17 10:33:00,59.2,48.2,29.90,North,0,0.0,0.0,67,0.00,,,0.00,WUHU21623XXSP,2013-05-17 17:33:00,
2013-05-17 10:38:00,59.5,48.2,29.90,North,0,0.0,0.0,66,0.00,,,0.00,WUHU21623XXSP,2013-05-17 17:38:00,
2013-05-17 10:43:00,59.7,47.9,29.90,North,0,0.0,0.0,65,0.00,,,0.00,WUHU21623XXSP,2013-05-17 17:43:00,
2013-05-17 10:48:00,60.1,48.3,29.90,North,0,0.0,0.0,65,0.00,,,0.00,WUHU21623XXSP,2013-05-17 17:48:00,
2013-05-17 10:53:00,60.4,48.7,29.90,North,0,0.0,0.0,65,0.00,,,0.00,WUHU21623XXSP,2013-05-17 17:53:00,
2013-05-17 10:58:00,60.6,47.6,29.90,North,0,0.0,0.0,62,0.00,,,0.00,WUHU21623XXSP,2013-05-17 17:58:00,
2013-05-17 11:03:00,61.0,47.5,29.91,North,0,0.0,0.0,61,0.00,,,0.00,WUHU21623XXSP,2013-05-17 18:03:00,
2013-05-17 11:08:00,61.3,48.3,29.91,North,0,0.0,0.0,62,0.00,,,0.00,WUHU21623XXSP,2013-05-17 18:08:00,
2013-05-17 11:13:00,61.5,48.0,29.91,North,0,0.0,0.0,61,0.00,,,0.00,WUHU21623XXSP,2013-05-17 18:13:00,
2013-05-17 11:18:00,61.9,47.9,29.91,North,0,0.0,0.0,60,0.00,,,0.00,WUHU21623XXSP,2013-05-17 18:18:00,
2013-05-17 11:23:00,62.1,48.1,29.91,North,0,0.0,0.0,60,0.00,,,0.00,WUHU21623XXSP,2013-05-17 18:23:00,
2013-05-17 11:28:00,62.4,48.4,29.91,North,0,0.0,0.0,60,0.00,,,0.00,WUHU21623XXSP,2013-05-17 18:28:00,
2013-05-17 11:33:00,62.4,47.9,29.91,North,0,0.0,0.0,59,0.00,,,0.00,WUHU21623XXSP,2013-05-17 18:33:00,
2013-05-17 11:38:00,62.8,48.7,29.91,North,0,0.0,0.0,60,0.00,,,0.00,WUHU21623XXSP,2013-05-17 18:38:00,
2013-05-17 11:43:00,63.1,48.6,29.91,North,0,0.0,0.0,59,0.00,,,0.00,WUHU21623XXSP,2013-05-17 18:43:00,
2013-05-17 11:48:00,63.5,48.4,29.91,North,0,0.0,0.0,58,0.00,,,0.00,WUHU21623XXSP,2013-05-17 18:48:00,
2013-05-17 11:53:00,63.5,47.9,29.92,North,0,0.0,0.0,57,0.00,,,0.00,WUHU21623XXSP,2013-05-17 18:53:00,
2013-05-17 11:58:00,64.0,47.9,29.91,North,0,0.0,0.0,56,0.00,,,0.00,WUHU21623XXSP,2013-05-17 18:58:00,
2013-05-17 12:03:00,64.0,47.9,29.92,North,0,0.0,0.0,56,0.00,,,0.00,WUHU21623XXSP,2013-05-17 19:03:00,
2013-05-17 12:08:00,64.2,48.1,29.91,North,0,0.0,0.0,56,0.00,,,0.00,WUHU21623XXSP,2013-05-17 19:08:00,
2013-05-17 12:13:00,64.2,48.1,29.91,North,0,0.0,0.0,56,0.00,,,0.00,WUHU21623XXSP,2013-05-17 19:13:00,
2013-05-17 12:18:00,64.8,48.1,29.91,North,0,0.0,0.0,55,0.00,,,0.00,WUHU21623XXSP,2013-05-17 19:18:00,
2013-05-17 12:23:00,64.9,48.3,29.92,North,0,0.0,0.0,55,0.00,,,0.00,WUHU21623XXSP,2013-05-17 19:23:00,
2013-05-17 12:28:00,65.1,48.0,29.92,North,0,0.0,0.0,54,0.00,,,0.00,WUHU21623XXSP,2013-05-17 19:28:00,
2013-05-17 12:33:00,65.5,48.3,29.92,North,0,0.0,0.0,54,0.00,,,0.00,WUHU21623XXSP,2013-05-17 19:33:00,
2013-05-17 12:38:00,65.7,48.5,29.92,North,0,0.0,0.0,54,0.00,,,0.00,WUHU21623XXSP,2013-05-17 19:38:00,
2013-05-17 12:43:00,65.8,48.2,29.92,North,0,0.0,0.0,53,0.00,,,0.00,WUHU21623XXSP,2013-05-17 19:43:00,
2013-05-17 12:48:00,66.0,48.4,29.92,North,0,0.0,0.0,53,0.00,,,0.00,WUHU21623XXSP,2013-05-17 19:48:00,
2013-05-17 12:53:00,66.2,48.1,29.91,North,0,0.0,0.0,52,0.00,,,0.00,WUHU21623XXSP,2013-05-17 19:53:00,
2013-05-17 12:58:00,66.2,48.6,29.92,North,0,0.0,0.0,53,0.00,,,0.00,WUHU21623XXSP,2013-05-17 19:58:00,
2013-05-17 13:03:00,66.6,48.9,29.91,North,0,0.0,0.0,53,0.00,,,0.00,WUHU21623XXSP,2013-05-17 20:03:00,
2013-05-17 13:08:00,66.7,49.1,29.92,North,0,0.0,0.0,53,0.00,,,0.00,WUHU21623XXSP,2013-05-17 20:08:00,
2013-05-17 13:13:00,67.1,49.9,29.91,North,0,0.0,0.0,54,0.00,,,0.00,WUHU21623XXSP,2013-05-17 20:13:00,
2013-05-17 13:18:00,67.3,49.5,29.91,North,0,0.0,0.0,53,0.00,,,0.00,WUHU21623XXSP,2013-05-17 20:18:00,
2013-05-17 13:23:00,67.3,50.0,29.92,North,0,0.0,0.0,54,0.00,,,0.00,WUHU21623XXSP,2013-05-17 20:23:00,
2013-05-17 13:28:00,67.6,50.4,29.92,North,0,0.0,0.0,54,0.00,,,0.00,WUHU21623XXSP,2013-05-17 20:28:00,
2013-05-17 13:33:00,67.8,50.0,29.91,North,0,0.0,0.0,53,0.00,,,0.00,WUHU21623XXSP,2013-05-17 20:33:00,
2013-05-17 13:38:00,67.8,50.0,29.92,North,0,0.0,0.0,53,0.00,,,0.00,WUHU21623XXSP,2013-05-17 20:38:00,
2013-05-17 13:43:00,67.8,50.0,29.92,North,0,0.0,0.0,53,0.00,,,0.00,WUHU21623XXSP,2013-05-17 20:43:00,
2013-05-17 13:48:00,68.2,50.4,29.92,North,0,0.0,0.0,53,0.00,,,0.00,WUHU21623XXSP,2013-05-17 20:48:00,
2013-05-17 13:53:00,68.7,50.4,29.91,North,0,0.0,0.0,52,0.00,,,0.00,WUHU21623XXSP,2013-05-17 20:53:00,
2013-05-17 13:58:00,68.7,50.9,29.91,North,0,0.0,0.0,53,0.00,,,0.00,WUHU21623XXSP,2013-05-17 20:58:00,
2013-05-17 14:03:00,68.4,50.5,29.92,North,0,0.0,0.0,53,0.00,,,0.00,WUHU21623XXSP,2013-05-17 21:03:00,
2013-05-17 14:08:00,68.4,50.5,29.92,North,0,0.0,0.0,53,0.00,,,0.00,WUHU21623XXSP,2013-05-17 21:08:00,
2013-05-17 14:13:00,67.8,50.0,29.92,North,0,0.0,0.0,53,0.00,,,0.00,WUHU21623XXSP,2013-05-17 21:13:00,
2013-05-17 14:18:00,67.8,50.0,29.91,North,0,0.0,0.0,53,0.00,,,0.00,WUHU21623XXSP,2013-05-17 21:18:00,
2013-05-17 14:23:00,68.4,50.5,29.92,North,0,0.0,0.0,53,0.00,,,0.00,WUHU21623XXSP,2013-05-17 21:23:00,
2013-05-17 14:28:00,68.2,50.4,29.92,North,0,0.0,0.0,53,0.00,,,0.00,WUHU21623XXSP,2013-05-17 21:28:00,
2013-05-17 14:33:00,68.2,50.4,29.91,North,0,0.0,0.0,53,0.00,,,0.00,WUHU21623XXSP,2013-05-17 21:33:00,
2013-05-17 14:38:00,68.4,50.0,29.91,North,0,0.0,0.0,52,0.00,,,0.00,WUHU21623XXSP,2013-05-17 21:38:00,
2013-05-17 14:43:00,68.7,49.9,29.91,North,0,0.0,0.0,51,0.00,,,0.00,WUHU21623XXSP,2013-05-17 21:43:00,
2013-05-17 14:48:00,68.7,49.9,29.91,North,0,0.0,0.0,51,0.00,,,0.00,WUHU21623XXSP,2013-05-17 21:48:00,
2013-05-17 14:53:00,68.9,50.0,29.91,North,0,0.0,0.0,51,0.00,,,0.00,WUHU21623XXSP,2013-05-17 21:53:00,
2013-05-17 14:58:00,69.6,50.7,29.91,North,0,0.0,0.0,51,0.00,,,0.00,WUHU21623XXSP,2013-05-17 21:58:00,
2013-05-17 15:03:00,70.2,50.1,29.91,North,0,0.0,0.0,49,0.00,,,0.00,WUHU21623XXSP,2013-05-17 22:03:00,
2013-05-17 15:08:00,70.3,50.3,29.91,North,0,0.0,0.0,49,0.00,,,0.00,WUHU21623XXSP,2013-05-17 22:08:00,
2013-05-17 15:13:00,70.5,50.4,29.91,North,0,0.0,0.0,49,0.00,,,0.00,WUHU21623XXSP,2013-05-17 22:13:00,
2013-05-17 15:18:00,70.3,50.3,29.91,North,0,0.0,0.0,49,0.00,,,0.00,WUHU21623XXSP,2013-05-17 22:18:00,
2013-05-17 15:23:00,70.2,49.5,29.91,North,0,0.0,0.0,48,0.00,,,0.00,WUHU21623XXSP,2013-05-17 22:23:00,
2013-05-17 15:28:00,70.3,50.3,29.90,North,0,0.0,0.0,49,0.00,,,0.00,WUHU21623XXSP,2013-05-17 22:28:00,
2013-05-17 15:33:00,70.9,50.1,29.90,North,0,0.0,0.0,48,0.00,,,0.00,WUHU21623XXSP,2013-05-17 22:33:00,
2013-05-17 15:38:00,70.9,49.5,29.90,North,0,0.0,0.0,47,0.00,,,0.00,WUHU21623XXSP,2013-05-17 22:38:00,
2013-05-17 15:43:00,71.2,49.9,29.91,North,0,0.0,0.0,47,0.00,,,0.00,WUHU21623XXSP,2013-05-17 22:43:00,
2013-05-17 15:48:00,71.4,50.0,29.90,North,0,0.0,0.0,47,0.00,,,0.00,WUHU21623XXSP,2013-05-17 22:48:00,
2013-05-17 15:53:00,71.1,49.1,29.91,North,0,0.0,0.0,46,0.00,,,0.00,WUHU21623XXSP,2013-05-17 22:53:00,
2013-05-17 15:58:00,70.5,49.2,29.90,North,0,0.0,0.0,47,0.00,,,0.00,WUHU21623XXSP,2013-05-17 22:58:00,
2013-05-17 16:03:00,70.9,49.5,29.90,North,0,0.0,0.0,47,0.00,,,0.00,WUHU21623XXSP,2013-05-17 23:03:00,
2013-05-17 16:08:00,70.9,49.0,29.90,North,0,0.0,0.0,46,0.00,,,0.00,WUHU21623XXSP,2013-05-17 23:08:00,
2013-05-17 16:13:00,71.4,49.4,29.90,North,0,0.0,0.0,46,0.00,,,0.00,WUHU21623XXSP,2013-05-17 23:13:00,
2013-05-17 16:18:00,71.2,48.7,29.91,North,0,0.0,0.0,45,0.00,,,0.00,WUHU21623XXSP,2013-05-17 23:18:00,
2013-05-17 16:23:00,70.5,48.0,29.90,North,0,0.0,0.0,45,0.00,,,0.00,WUHU21623XXSP,2013-05-17 23:23:00,
2013-05-17 16:28:00,70.3,48.5,29.90,North,0,0.0,0.0,46,0.00,,,0.00,WUHU21623XXSP,2013-05-17 23:28:00,
2013-05-17 16:33:00,70.7,48.2,29.90,North,0,0.0,0.0,45,0.00,,,0.00,WUHU21623XXSP,2013-05-17 23:33:00,
2013-05-17 16:38:00,70.5,48.6,29.90,North,0,0.0,0.0,46,0.00,,,0.00,WUHU21623XXSP,2013-05-17 23:38:00,
2013-05-17 16:43:00,70.5,48.6,29.90,North,0,0.0,0.0,46,0.00,,,0.00,WUHU21623XXSP,2013-05-17 23:43:00,
2013-05-17 16:48:00,70.5,48.0,29.90,North,0,0.0,0.0,45,0.00,,,0.00,WUHU21623XXSP,2013-05-17 23:48:00,
2013-05-17 16:53:00,70.5,48.0,29.90,North,0,0.0,0.0,45,0.00,,,0.00,WUHU21623XXSP,2013-05-17 23:53:00,
2013-05-17 16:58:00,70.5,47.4,29.90,North,0,0.0,0.0,44,0.00,,,0.00,WUHU21623XXSP,2013-05-17 23:58:00,
2013-05-17 17:03:00,70.5,47.4,29.90,North,0,0.0,0.0,44,0.00,,,0.00,WUHU21623XXSP,2013-05-18 00:03:00,
2013-05-17 17:08:00,70.7,47.6,29.90,North,0,0.0,0.0,44,0.00,,,0.00,WUHU21623XXSP,2013-05-18 00:08:00,
2013-05-17 17:13:00,70.7,47.0,29.90,North,0,0.0,0.0,43,0.00,,,0.00,WUHU21623XXSP,2013-05-18 00:13:00,
2013-05-17 17:18:00,70.9,47.2,29.90,North,0,0.0,0.0,43,0.00,,,0.00,WUHU21623XXSP,2013-05-18 00:18:00,
2013-05-17 17:23:00,70.7,47.0,29.90,North,0,0.0,0.0,43,0.00,,,0.00,WUHU21623XXSP,2013-05-18 00:23:00,
2013-05-17 17:28:00,70.7,47.0,29.90,North,0,0.0,0.0,43,0.00,,,0.00,WUHU21623XXSP,2013-05-18 00:28:00,
2013-05-17 17:33:00,70.9,47.2,29.90,North,0,0.0,0.0,43,0.00,,,0.00,WUHU21623XXSP,2013-05-18 00:33:00,
2013-05-17 17:38:00,70.7,47.0,29.90,North,0,0.0,0.0,43,0.00,,,0.00,WUHU21623XXSP,2013-05-18 00:38:00,
2013-05-17 17:43:00,70.7,47.0,29.91,North,0,0.0,0.0,43,0.00,,,0.00,WUHU21623XXSP,2013-05-18 00:43:00,
2013-05-17 17:48:00,70.5,46.9,29.90,North,0,0.0,0.0,43,0.00,,,0.00,WUHU21623XXSP,2013-05-18 00:48:00,
2013-05-17 17:53:00,70.7,46.4,29.91,North,0,0.0,0.0,42,0.00,,,0.00,WUHU21623XXSP,2013-05-18 00:53:00,
2013-05-17 17:58:00,70.5,46.9,29.90,North,0,0.0,0.0,43,0.00,,,0.00,WUHU21623XXSP,2013-05-18 00:58:00,
2013-05-17 18:03:00,70.3,46.1,29.90,North,0,0.0,0.0,42,0.00,,,0.00,WUHU21623XXSP,2013-05-18 01:03:00,
2013-05-17 18:08:00,70.3,46.1,29.91,North,0,0.0,0.0,42,0.00,,,0.00,WUHU21623XXSP,2013-05-18 01:08:00,
2013-05-17 18:13:00,70.2,45.9,29.91,North,0,0.0,0.0,42,0.00,,,0.00,WUHU21623XXSP,2013-05-18 01:13:00,
2013-05-17 18:18:00,70.2,45.9,29.91,North,0,0.0,0.0,42,0.00,,,0.00,WUHU21623XXSP,2013-05-18 01:18:00,
2013-05-17 18:23:00,70.2,45.9,29.91,North,0,0.0,0.0,42,0.00,,,0.00,WUHU21623XXSP,2013-05-18 01:23:00,
2013-05-17 18:28:00,69.8,45.6,29.90,North,0,0.0,0.0,42,0.00,,,0.00,WUHU21623XXSP,2013-05-18 01:28:00,
2013-05-17 18:33:00,69.8,45.6,29.90,North,0,0.0,0.0,42,0.00,,,0.00,WUHU21623XXSP,2013-05-18 01:33:00,
2013-05-17 18:38:00,69.8,46.2,29.91,North,0,0.0,0.0,43,0.00,,,0.00,WUHU21623XXSP,2013-05-18 01:38:00,
2013-05-17 18:43:00,69.6,46.0,29.91,North,0,0.0,0.0,43,0.00,,,0.00,WUHU21623XXSP,2013-05-18 01:43:00,
2013-05-17 18:48:00,69.6,46.0,29.91,North,0,0.0,0.0,43,0.00,,,0.00,WUHU21623XXSP,2013-05-18 01:48:00,
2013-05-17 18:53:00,69.6,46.6,29.91,North,0,0.0,0.0,44,0.00,,,0.00,WUHU21623XXSP,2013-05-18 01:53:00,
2013-05-17 18:58:00,69.3,46.3,29.91,North,0,0.0,0.0,44,0.00,,,0.00,WUHU21623XXSP,2013-05-18 01:58:00,
2013-05-17 19:03:00,69.1,46.7,29.91,North,0,0.0,0.0,45,0.00,,,0.00,WUHU21623XXSP,2013-05-18 02:03:00,
2013-05-17 19:08:00,68.7,46.4,29.91,North,0,0.0,0.0,45,0.00,,,0.00,WUHU21623XXSP,2013-05-18 02:08:00,
2013-05-17 19:13:00,68.4,46.1,29.91,North,0,0.0,0.0,45,0.00,,,0.00,WUHU21623XXSP,2013-05-18 02:13:00,
2013-05-17 19:18:00,67.6,46.0,29.91,North,0,0.0,0.0,46,0.00,,,0.00,WUHU21623XXSP,2013-05-18 02:18:00,
2013-05-17 19:23:00,66.6,45.7,29.92,North,0,0.0,0.0,47,0.00,,,0.00,WUHU21623XXSP,2013-05-18 02:23:00,
2013-05-17 19:28:00,65.8,45.6,29.92,North,0,0.0,0.0,48,0.00,,,0.00,WUHU21623XXSP,2013-05-18 02:28:00,
2013-05-17 19:33:00,65.1,45.4,29.92,North,0,0.0,0.0,49,0.00,,,0.00,WUHU21623XXSP,2013-05-18 02:33:00,
2013-05-17 19:38:00,64.6,45.5,29.93,North,0,0.0,0.0,50,0.00,,,0.00,WUHU21623XXSP,2013-05-18 02:38:00,
2013-05-17 19:43:00,63.7,45.0,29.92,North,0,0.0,0.0,50,0.00,,,0.00,WUHU21623XXSP,2013-05-18 02:43:00,
2013-05-17 19:48:00,63.1,45.2,29.93,North,0,0.0,0.0,52,0.00,,,0.00,WUHU21623XXSP,2013-05-18 02:48:00,
2013-05-17 19:53:00,62.4,44.5,29.93,North,0,0.0,0.0,52,0.00,,,0.00,WUHU21623XXSP,2013-05-18 02:53:00,
2013-05-17 19:58:00,61.9,44.5,29.93,North,0,0.0,0.0,53,0.00,,,0.00,WUHU21623XXSP,2013-05-18 02:58:00,
2013-05-17 20:03:00,61.3,44.0,29.93,North,0,0.0,0.0,53,0.00,,,0.00,WUHU21623XXSP,2013-05-18 03:03:00,
2013-05-17 20:08:00,60.6,43.8,29.93,North,0,0.0,0.0,54,0.00,,,0.00,WUHU21623XXSP,2013-05-18 03:08:00,
2013-05-17 20:13:00,60.1,43.8,29.93,North,0,0.0,0.0,55,0.00,,,0.00,WUHU21623XXSP,2013-05-18 03:13:00,
2013-05-17 20:18:00,59.7,43.5,29.93,North,0,0.0,0.0,55,0.00,,,0.00,WUHU21623XXSP,2013-05-18 03:18:00,
2013-05-17 20:23:00,59.2,43.4,29.93,North,0,0.0,0.0,56,0.00,,,0.00,WUHU21623XXSP,2013-05-18 03:23:00,
2013-05-17 20:28:00,58.8,43.1,29.93,North,0,0.0,0.0,56,0.00,,,0.00,WUHU21623XXSP,2013-05-18 03:28:00,
2013-05-17 20:33:00,58.3,43.1,29.93,North,0,0.0,0.0,57,0.00,,,0.00,WUHU21623XXSP,2013-05-18 03:33:00,
2013-05-17 20:38:00,57.7,42.6,29.94,North,0,0.0,0.0,57,0.00,,,0.00,WUHU21623XXSP,2013-05-18 03:38:00,
2013-05-17 20:43:00,57.6,42.9,29.94,North,0,0.0,0.0,58,0.00,,,0.00,WUHU21623XXSP,2013-05-18 03:43:00,
2013-05-17 20:48:00,57.0,42.4,29.94,North,0,0.0,0.0,58,0.00,,,0.00,WUHU21623XXSP,2013-05-18 03:48:00,
2013-05-17 20:53:00,56.8,42.7,29.94,North,0,0.0,0.0,59,0.00,,,0.00,WUHU21623XXSP,2013-05-18 03:53:00,
2013-05-17 20:58:00,56.5,42.3,29.94,North,0,0.0,0.0,59,0.00,,,0.00,WUHU21623XXSP,2013-05-18 03:58:00,
2013-05-17 21:16:00,55.8,43.1,29.94,North,0,0.0,0.0,62,0.00,,,0.00,WUHU21623XXSP,2013-05-18 04:16:00,
2013-05-17 22:16:00,53.4,42.8,29.96,North,0,0.0,0.0,67,0.00,,,0.00,WUHU21623XXSP,2013-05-18 05:16:00,
2013-05-17 23:16:00,51.1,41.8,29.96,North,0,0.0,0.0,70,0.00,,,0.00,WUHU21623XXSP,2013-05-18 06:16:00,